sensor_id;sensor_type;location;lat;lon;timestamp;pressure;altitude;pressure_sealevel;temperature;humidity
71805;BME280;59654;52.216;5.616;2023-01-08T00:00:06;100073.22;;;8.74;91.39
71805;BME280;59654;52.216;5.616;2023-01-08T00:00:43;100074.94;;;8.76;91.75
71805;BME280;59654;52.216;5.616;2023-01-08T00:01:13;100079.38;;;8.76;91.73
71805;BME280;59654;52.216;5.616;2023-01-08T00:01:44;100093.47;;;8.78;91.42
71805;BME280;59654;52.216;5.616;2023-01-08T00:02:15;100112.09;;;8.78;91.39
71805;BME280;59654;52.216;5.616;2023-01-08T00:02:46;100138.94;;;8.70;92.35
71805;BME280;59654;52.216;5.616;2023-01-08T00:03:19;100158.63;;;8.66;92.29
71805;BME280;59654;52.216;5.616;2023-01-08T00:03:50;100147.25;;;8.63;93.04
71805;BME280;59654;52.216;5.616;2023-01-08T00:04:20;100144.19;;;8.51;89.17
71805;BME280;59654;52.216;5.616;2023-01-08T00:04:51;100148.97;;;8.42;88.95
71805;BME280;59654;52.216;5.616;2023-01-08T00:05:22;100143.19;;;8.32;87.87
71805;BME280;59654;52.216;5.616;2023-01-08T00:05:53;100132.91;;;8.23;87.36
71805;BME280;59654;52.216;5.616;2023-01-08T00:06:23;100143.97;;;8.12;87.81
71805;BME280;59654;52.216;5.616;2023-01-08T00:06:54;100146.00;;;8.06;88.33
71805;BME280;59654;52.216;5.616;2023-01-08T00:07:25;100138.28;;;8.00;88.56
71805;BME280;59654;52.216;5.616;2023-01-08T00:07:56;100139.38;;;7.94;88.93
71805;BME280;59654;52.216;5.616;2023-01-08T00:08:28;100124.38;;;7.93;89.07
71805;BME280;59654;52.216;5.616;2023-01-08T00:08:59;100133.31;;;7.91;88.57
71805;BME280;59654;52.216;5.616;2023-01-08T00:09:31;100126.41;;;7.86;88.19
71805;BME280;59654;52.216;5.616;2023-01-08T00:10:02;100125.56;;;7.86;87.88
71805;BME280;59654;52.216;5.616;2023-01-08T00:10:36;100122.16;;;7.82;88.82
71805;BME280;59654;52.216;5.616;2023-01-08T00:11:08;100127.56;;;7.79;88.78
71805;BME280;59654;52.216;5.616;2023-01-08T00:11:38;100113.00;;;7.68;88.48
71805;BME280;59654;52.216;5.616;2023-01-08T00:12:10;100121.28;;;7.59;88.70
71805;BME280;59654;52.216;5.616;2023-01-08T00:12:41;100116.22;;;7.52;90.00
71805;BME280;59654;52.216;5.616;2023-01-08T00:13:11;100113.56;;;7.52;90.03
71805;BME280;59654;52.216;5.616;2023-01-08T00:13:43;100111.88;;;7.50;90.76
71805;BME280;59654;52.216;5.616;2023-01-08T00:14:14;100102.47;;;7.41;90.17
71805;BME280;59654;52.216;5.616;2023-01-08T00:14:45;100107.22;;;7.33;91.07
71805;BME280;59654;52.216;5.616;2023-01-08T00:15:16;100095.78;;;7.31;91.23
71805;BME280;59654;52.216;5.616;2023-01-08T00:15:46;100109.91;;;7.32;90.92
71805;BME280;59654;52.216;5.616;2023-01-08T00:16:18;100101.25;;;7.27;91.13
71805;BME280;59654;52.216;5.616;2023-01-08T00:16:50;100098.72;;;7.24;90.89
71805;BME280;59654;52.216;5.616;2023-01-08T00:17:21;100094.41;;;7.21;90.78
71805;BME280;59654;52.216;5.616;2023-01-08T00:17:52;100098.91;;;7.19;91.46
71805;BME280;59654;52.216;5.616;2023-01-08T00:18:22;100092.69;;;7.20;92.03
71805;BME280;59654;52.216;5.616;2023-01-08T00:18:56;100097.97;;;7.20;92.38
71805;BME280;59654;52.216;5.616;2023-01-08T00:19:26;100094.47;;;7.18;92.50
71805;BME280;59654;52.216;5.616;2023-01-08T00:19:58;100093.59;;;7.19;92.73
71805;BME280;59654;52.216;5.616;2023-01-08T00:20:28;100098.09;;;7.15;92.34
71805;BME280;59654;52.216;5.616;2023-01-08T00:21:00;100099.88;;;7.15;92.50
71805;BME280;59654;52.216;5.616;2023-01-08T00:21:31;100092.84;;;7.14;93.20
71805;BME280;59654;52.216;5.616;2023-01-08T00:22:02;100101.72;;;7.13;92.37
71805;BME280;59654;52.216;5.616;2023-01-08T00:22:33;100097.44;;;7.09;93.11
71805;BME280;59654;52.216;5.616;2023-01-08T00:23:04;100093.00;;;7.09;93.68
71805;BME280;59654;52.216;5.616;2023-01-08T00:23:35;100092.28;;;7.06;93.63
71805;BME280;59654;52.216;5.616;2023-01-08T00:24:06;100093.00;;;7.09;93.88
71805;BME280;59654;52.216;5.616;2023-01-08T00:24:37;100096.53;;;7.10;93.30
71805;BME280;59654;52.216;5.616;2023-01-08T00:25:08;100098.22;;;7.12;93.80
71805;BME280;59654;52.216;5.616;2023-01-08T00:25:39;100100.91;;;7.11;93.81
71805;BME280;59654;52.216;5.616;2023-01-08T00:26:10;100092.91;;;7.12;93.20
71805;BME280;59654;52.216;5.616;2023-01-08T00:26:42;100107.09;;;7.11;93.11
71805;BME280;59654;52.216;5.616;2023-01-08T00:27:13;100095.50;;;7.14;93.91
71805;BME280;59654;52.216;5.616;2023-01-08T00:27:44;100094.59;;;7.15;93.70
71805;BME280;59654;52.216;5.616;2023-01-08T00:28:16;100094.59;;;7.15;93.88
71805;BME280;59654;52.216;5.616;2023-01-08T00:28:46;100100.00;;;7.12;94.61
71805;BME280;59654;52.216;5.616;2023-01-08T00:29:17;100094.75;;;7.10;93.80
71805;BME280;59654;52.216;5.616;2023-01-08T00:29:48;100101.03;;;7.08;93.41
71805;BME280;59654;52.216;5.616;2023-01-08T00:30:19;100097.44;;;7.09;93.29
71805;BME280;59654;52.216;5.616;2023-01-08T00:30:50;100099.19;;;7.10;93.72
71805;BME280;59654;52.216;5.616;2023-01-08T00:31:20;100100.91;;;7.11;94.18
71805;BME280;59654;52.216;5.616;2023-01-08T00:31:51;100108.81;;;7.12;94.15
71805;BME280;59654;52.216;5.616;2023-01-08T00:32:22;100099.13;;;7.11;94.57
71805;BME280;59654;52.216;5.616;2023-01-08T00:32:53;100098.16;;;7.14;94.67
71805;BME280;59654;52.216;5.616;2023-01-08T00:33:23;100095.50;;;7.14;93.94
71805;BME280;59654;52.216;5.616;2023-01-08T00:33:54;100092.81;;;7.15;93.95
71805;BME280;59654;52.216;5.616;2023-01-08T00:34:25;100092.84;;;7.14;93.94
71805;BME280;59654;52.216;5.616;2023-01-08T00:34:56;100093.72;;;7.14;94.32
71805;BME280;59654;52.216;5.616;2023-01-08T00:35:27;100087.56;;;7.14;94.64
71805;BME280;59654;52.216;5.616;2023-01-08T00:35:58;100089.34;;;7.13;95.07
71805;BME280;59654;52.216;5.616;2023-01-08T00:36:29;100087.50;;;7.15;94.44
71805;BME280;59654;52.216;5.616;2023-01-08T00:37:00;100084.81;;;7.17;94.36
71805;BME280;59654;52.216;5.616;2023-01-08T00:37:31;100078.69;;;7.15;94.66
71805;BME280;59654;52.216;5.616;2023-01-08T00:38:02;100083.06;;;7.16;94.37
71805;BME280;59654;52.216;5.616;2023-01-08T00:38:33;100083.06;;;7.16;94.19
71805;BME280;59654;52.216;5.616;2023-01-08T00:39:04;100080.41;;;7.16;93.82
71805;BME280;59654;52.216;5.616;2023-01-08T00:39:34;100082.16;;;7.17;94.18
71805;BME280;59654;52.216;5.616;2023-01-08T00:40:06;100079.47;;;7.19;94.43
71805;BME280;59654;52.216;5.616;2023-01-08T00:40:38;100075.00;;;7.21;94.95
71805;BME280;59654;52.216;5.616;2023-01-08T00:41:11;100082.16;;;7.17;93.66
71805;BME280;59654;52.216;5.616;2023-01-08T00:41:43;100083.13;;;7.14;93.82
71805;BME280;59654;52.216;5.616;2023-01-08T00:42:15;100080.47;;;7.14;93.94
71805;BME280;59654;52.216;5.616;2023-01-08T00:42:46;100076.09;;;7.13;95.29
71805;BME280;59654;52.216;5.616;2023-01-08T00:43:17;100074.34;;;7.12;94.96
71805;BME280;59654;52.216;5.616;2023-01-08T00:43:48;100066.34;;;7.14;94.66
71805;BME280;59654;52.216;5.616;2023-01-08T00:44:18;100069.88;;;7.14;94.53
71805;BME280;59654;52.216;5.616;2023-01-08T00:44:49;100068.94;;;7.15;94.26
71805;BME280;59654;52.216;5.616;2023-01-08T00:45:20;100075.06;;;7.17;94.62
71805;BME280;59654;52.216;5.616;2023-01-08T00:45:51;100083.00;;;7.19;94.62
71805;BME280;59654;52.216;5.616;2023-01-08T00:46:23;100076.72;;;7.22;94.22
71805;BME280;59654;52.216;5.616;2023-01-08T00:46:53;100079.38;;;7.22;94.31
71805;BME280;59654;52.216;5.616;2023-01-08T00:47:24;100081.00;;;7.24;94.60
71805;BME280;59654;52.216;5.616;2023-01-08T00:47:55;100072.16;;;7.25;94.80
71805;BME280;59654;52.216;5.616;2023-01-08T00:48:26;100067.59;;;7.29;94.49
71805;BME280;59654;52.216;5.616;2023-01-08T00:48:57;100067.59;;;7.29;94.15
71805;BME280;59654;52.216;5.616;2023-01-08T00:49:28;100072.84;;;7.30;94.11
71805;BME280;59654;52.216;5.616;2023-01-08T00:49:59;100064.03;;;7.30;94.21
71805;BME280;59654;52.216;5.616;2023-01-08T00:50:30;100063.16;;;7.29;93.84
71805;BME280;59654;52.216;5.616;2023-01-08T00:51:01;100068.56;;;7.26;94.05
71805;BME280;59654;52.216;5.616;2023-01-08T00:51:32;100066.78;;;7.27;93.79
71805;BME280;59654;52.216;5.616;2023-01-08T00:52:03;100060.56;;;7.28;93.81
71805;BME280;59654;52.216;5.616;2023-01-08T00:52:34;100057.91;;;7.28;94.22
71805;BME280;59654;52.216;5.616;2023-01-08T00:53:05;100051.75;;;7.27;94.38
71805;BME280;59654;52.216;5.616;2023-01-08T00:53:36;100058.78;;;7.28;93.59
71805;BME280;59654;52.216;5.616;2023-01-08T00:54:10;100057.97;;;7.26;94.02
71805;BME280;59654;52.216;5.616;2023-01-08T00:54:41;100054.41;;;7.27;94.05
71805;BME280;59654;52.216;5.616;2023-01-08T00:55:12;100053.41;;;7.30;94.00
71805;BME280;59654;52.216;5.616;2023-01-08T00:55:43;100056.03;;;7.31;93.52
71805;BME280;59654;52.216;5.616;2023-01-08T00:56:13;100053.38;;;7.31;93.86
71805;BME280;59654;52.216;5.616;2023-01-08T00:56:44;100046.28;;;7.32;93.67
71805;BME280;59654;52.216;5.616;2023-01-08T00:57:15;100057.69;;;7.34;93.75
71805;BME280;59654;52.216;5.616;2023-01-08T00:57:46;100051.41;;;7.36;93.82
71805;BME280;59654;52.216;5.616;2023-01-08T00:58:17;100049.63;;;7.37;92.97
71805;BME280;59654;52.216;5.616;2023-01-08T00:58:47;100048.72;;;7.38;92.61
71805;BME280;59654;52.216;5.616;2023-01-08T00:59:18;100044.28;;;7.38;92.74
71805;BME280;59654;52.216;5.616;2023-01-08T00:59:49;100043.31;;;7.39;93.58
71805;BME280;59654;52.216;5.616;2023-01-08T01:00:20;100042.34;;;7.42;93.08
71805;BME280;59654;52.216;5.616;2023-01-08T01:00:51;100046.78;;;7.41;93.49
71805;BME280;59654;52.216;5.616;2023-01-08T01:01:22;100049.38;;;7.43;93.62
71805;BME280;59654;52.216;5.616;2023-01-08T01:01:52;100050.28;;;7.42;93.09
71805;BME280;59654;52.216;5.616;2023-01-08T01:02:23;100051.16;;;7.42;93.23
71805;BME280;59654;52.216;5.616;2023-01-08T01:02:54;100043.22;;;7.42;92.68
71805;BME280;59654;52.216;5.616;2023-01-08T01:03:25;100043.16;;;7.44;92.51
71805;BME280;59654;52.216;5.616;2023-01-08T01:03:56;100044.00;;;7.44;93.39
71805;BME280;59654;52.216;5.616;2023-01-08T01:04:26;100042.22;;;7.45;92.60
71805;BME280;59654;52.216;5.616;2023-01-08T01:04:57;100042.16;;;7.46;92.91
71805;BME280;59654;52.216;5.616;2023-01-08T01:05:28;100043.09;;;7.45;92.50
71805;BME280;59654;52.216;5.616;2023-01-08T01:06:00;100049.22;;;7.47;92.43
71805;BME280;59654;52.216;5.616;2023-01-08T01:06:35;100053.69;;;7.45;92.66
71805;BME280;59654;52.216;5.616;2023-01-08T01:07:05;100045.75;;;7.45;93.30
71805;BME280;59654;52.216;5.616;2023-01-08T01:07:36;100038.75;;;7.43;92.66
71805;BME280;59654;52.216;5.616;2023-01-08T01:08:07;100037.03;;;7.42;93.03
71805;BME280;59654;52.216;5.616;2023-01-08T01:08:38;100033.53;;;7.41;92.37
71805;BME280;59654;52.216;5.616;2023-01-08T01:09:08;100034.38;;;7.42;92.13
71805;BME280;59654;52.216;5.616;2023-01-08T01:09:39;100032.59;;;7.42;93.07
71805;BME280;59654;52.216;5.616;2023-01-08T01:10:12;100034.31;;;7.43;93.09
71805;BME280;59654;52.216;5.616;2023-01-08T01:10:44;100035.31;;;7.41;93.03
71805;BME280;59654;52.216;5.616;2023-01-08T01:11:23;100037.09;;;7.40;93.43
71805;BME280;59654;52.216;5.616;2023-01-08T01:11:54;100037.09;;;7.40;93.30
71805;BME280;59654;52.216;5.616;2023-01-08T01:12:25;100039.75;;;7.40;93.16
71805;BME280;59654;52.216;5.616;2023-01-08T01:12:56;100034.44;;;7.40;93.87
71805;BME280;59654;52.216;5.616;2023-01-08T01:13:27;100034.38;;;7.42;93.04
71805;BME280;59654;52.216;5.616;2023-01-08T01:13:58;100038.81;;;7.41;93.23
71805;BME280;59654;52.216;5.616;2023-01-08T01:14:29;100036.22;;;7.40;93.78
71805;BME280;59654;52.216;5.616;2023-01-08T01:14:59;100037.09;;;7.40;93.37
71805;BME280;59654;52.216;5.616;2023-01-08T01:15:30;100036.16;;;7.41;93.68
71805;BME280;59654;52.216;5.616;2023-01-08T01:16:02;100036.97;;;7.43;93.84
71805;BME280;59654;52.216;5.616;2023-01-08T01:16:33;100032.53;;;7.44;93.51
71805;BME280;59654;52.216;5.616;2023-01-08T01:17:05;100037.84;;;7.44;93.61
71805;BME280;59654;52.216;5.616;2023-01-08T01:17:41;100036.94;;;7.45;93.62
71805;BME280;59654;52.216;5.616;2023-01-08T01:18:12;100033.41;;;7.44;93.31
71805;BME280;59654;52.216;5.616;2023-01-08T01:18:43;100036.06;;;7.44;92.94
71805;BME280;59654;52.216;5.616;2023-01-08T01:19:15;100036.06;;;7.44;93.65
71805;BME280;59654;52.216;5.616;2023-01-08T01:19:46;100041.31;;;7.46;93.38
71805;BME280;59654;52.216;5.616;2023-01-08T01:20:18;100038.66;;;7.46;93.16
71805;BME280;59654;52.216;5.616;2023-01-08T01:20:49;100039.47;;;7.48;93.73
71805;BME280;59654;52.216;5.616;2023-01-08T01:21:29;100029.72;;;7.48;93.77
71805;BME280;59654;52.216;5.616;2023-01-08T01:22:01;100038.59;;;7.47;93.51
71805;BME280;59654;52.216;5.616;2023-01-08T01:22:31;100033.28;;;7.47;93.18
71805;BME280;59654;52.216;5.616;2023-01-08T01:23:03;100032.44;;;7.47;93.35
71805;BME280;59654;52.216;5.616;2023-01-08T01:23:34;100025.41;;;7.46;92.98
71805;BME280;59654;52.216;5.616;2023-01-08T01:24:06;100027.19;;;7.45;92.85
71805;BME280;59654;52.216;5.616;2023-01-08T01:24:37;100027.19;;;7.45;92.96
71805;BME280;59654;52.216;5.616;2023-01-08T01:25:08;100027.28;;;7.42;93.30
71805;BME280;59654;52.216;5.616;2023-01-08T01:25:39;100030.88;;;7.41;93.46
71805;BME280;59654;52.216;5.616;2023-01-08T01:26:18;100026.63;;;7.37;93.79
71805;BME280;59654;52.216;5.616;2023-01-08T01:26:51;100022.97;;;7.40;93.42
71805;BME280;59654;52.216;5.616;2023-01-08T01:27:23;100030.06;;;7.39;94.03
71805;BME280;59654;52.216;5.616;2023-01-08T01:27:54;100022.91;;;7.41;94.11
71805;BME280;59654;52.216;5.616;2023-01-08T01:28:25;100032.66;;;7.41;93.50
71805;BME280;59654;52.216;5.616;2023-01-08T01:28:57;100031.78;;;7.40;94.23
71805;BME280;59654;52.216;5.616;2023-01-08T01:29:28;100029.28;;;7.37;93.30
71805;BME280;59654;52.216;5.616;2023-01-08T01:30:01;100027.59;;;7.35;94.40
71805;BME280;59654;52.216;5.616;2023-01-08T01:30:32;100024.09;;;7.34;94.10
71805;BME280;59654;52.216;5.616;2023-01-08T01:31:03;100024.16;;;7.33;95.08
71805;BME280;59654;52.216;5.616;2023-01-08T01:31:36;100033.88;;;7.32;94.81
71805;BME280;59654;52.216;5.616;2023-01-08T01:32:07;100031.22;;;7.32;95.16
71805;BME280;59654;52.216;5.616;2023-01-08T01:32:40;100025.94;;;7.32;94.74
71805;BME280;59654;52.216;5.616;2023-01-08T01:33:11;100018.91;;;7.31;95.09
71805;BME280;59654;52.216;5.616;2023-01-08T01:33:42;100030.53;;;7.27;94.77
71805;BME280;59654;52.216;5.616;2023-01-08T01:34:13;100034.91;;;7.28;96.01
71805;BME280;59654;52.216;5.616;2023-01-08T01:34:44;100026.03;;;7.29;95.29
71805;BME280;59654;52.216;5.616;2023-01-08T01:35:14;100031.34;;;7.29;95.45
71805;BME280;59654;52.216;5.616;2023-01-08T01:35:45;100015.38;;;7.31;95.59
71805;BME280;59654;52.216;5.616;2023-01-08T01:36:18;100012.66;;;7.32;95.92
71805;BME280;59654;52.216;5.616;2023-01-08T01:36:52;100023.16;;;7.35;95.09
71805;BME280;59654;52.216;5.616;2023-01-08T01:37:23;100022.25;;;7.36;95.27
71805;BME280;59654;52.216;5.616;2023-01-08T01:37:54;100027.41;;;7.39;96.13
71805;BME280;59654;52.216;5.616;2023-01-08T01:38:25;100029.13;;;7.40;95.50
71805;BME280;59654;52.216;5.616;2023-01-08T01:38:56;100022.00;;;7.42;96.00
71805;BME280;59654;52.216;5.616;2023-01-08T01:39:27;100022.00;;;7.42;95.60
71805;BME280;59654;52.216;5.616;2023-01-08T01:39:58;100024.59;;;7.44;95.88
71805;BME280;59654;52.216;5.616;2023-01-08T01:40:29;100024.59;;;7.44;96.06
71805;BME280;59654;52.216;5.616;2023-01-08T01:41:00;100028.03;;;7.46;95.66
71805;BME280;59654;52.216;5.616;2023-01-08T01:41:36;100026.19;;;7.48;95.95
71805;BME280;59654;52.216;5.616;2023-01-08T01:42:13;100021.81;;;7.47;95.26
71805;BME280;59654;52.216;5.616;2023-01-08T01:43:04;100021.72;;;7.50;95.52
71805;BME280;59654;52.216;5.616;2023-01-08T01:43:41;100026.09;;;7.51;96.05
71805;BME280;59654;52.216;5.616;2023-01-08T01:44:52;100025.13;;;7.54;95.98
71805;BME280;59654;52.216;5.616;2023-01-08T01:45:25;100023.13;;;7.59;95.76
71805;BME280;59654;52.216;5.616;2023-01-08T01:46:01;100029.28;;;7.59;95.14
71805;BME280;59654;52.216;5.616;2023-01-08T01:46:37;100021.41;;;7.58;95.57
71805;BME280;59654;52.216;5.616;2023-01-08T01:48:01;100035.47;;;7.60;95.32
71805;BME280;59654;52.216;5.616;2023-01-08T01:48:34;100031.88;;;7.61;95.35
71805;BME280;59654;52.216;5.616;2023-01-08T01:49:11;100030.97;;;7.62;95.55
71805;BME280;59654;52.216;5.616;2023-01-08T01:49:54;100030.03;;;7.63;95.75
71805;BME280;59654;52.216;5.616;2023-01-08T01:51:09;100029.13;;;7.64;95.35
71805;BME280;59654;52.216;5.616;2023-01-08T01:51:48;100026.47;;;7.64;95.29
71805;BME280;59654;52.216;5.616;2023-01-08T01:52:23;100028.16;;;7.66;95.31
71805;BME280;59654;52.216;5.616;2023-01-08T01:53:05;100033.41;;;7.68;94.96
71805;BME280;59654;52.216;5.616;2023-01-08T01:53:37;100032.41;;;7.70;95.32
71805;BME280;59654;52.216;5.616;2023-01-08T01:54:11;100031.53;;;7.70;94.68
71805;BME280;59654;52.216;5.616;2023-01-08T01:54:43;100036.72;;;7.73;94.76
71805;BME280;59654;52.216;5.616;2023-01-08T01:55:15;100035.66;;;7.77;94.75
71805;BME280;59654;52.216;5.616;2023-01-08T01:55:48;100035.66;;;7.77;95.01
71805;BME280;59654;52.216;5.616;2023-01-08T01:56:20;100040.91;;;7.78;95.19
71805;BME280;59654;52.216;5.616;2023-01-08T01:56:55;100039.19;;;7.77;94.85
71805;BME280;59654;52.216;5.616;2023-01-08T01:57:29;100039.94;;;7.81;94.73
71805;BME280;59654;52.216;5.616;2023-01-08T01:58:29;100038.09;;;7.83;94.50
71805;BME280;59654;52.216;5.616;2023-01-08T01:58:59;100044.25;;;7.83;94.07
71805;BME280;59654;52.216;5.616;2023-01-08T01:59:30;100037.22;;;7.82;95.17
71805;BME280;59654;52.216;5.616;2023-01-08T02:00:04;100036.31;;;7.83;95.47
71805;BME280;59654;52.216;5.616;2023-01-08T02:00:43;100041.59;;;7.83;94.85
71805;BME280;59654;52.216;5.616;2023-01-08T02:01:14;100030.13;;;7.83;94.56
71805;BME280;59654;52.216;5.616;2023-01-08T02:01:45;100031.00;;;7.83;94.90
71805;BME280;59654;52.216;5.616;2023-01-08T02:02:16;100035.31;;;7.86;94.59
71805;BME280;59654;52.216;5.616;2023-01-08T02:02:47;100026.56;;;7.84;94.41
71805;BME280;59654;52.216;5.616;2023-01-08T02:03:22;100029.25;;;7.82;93.68
71805;BME280;59654;52.216;5.616;2023-01-08T02:03:53;100031.00;;;7.83;94.54
71805;BME280;59654;52.216;5.616;2023-01-08T02:04:24;100035.31;;;7.86;94.13
71805;BME280;59654;52.216;5.616;2023-01-08T02:04:55;100031.66;;;7.88;94.60
71805;BME280;59654;52.216;5.616;2023-01-08T02:05:36;100026.22;;;7.92;94.26
71805;BME280;59654;52.216;5.616;2023-01-08T02:08:35;100043.00;;;7.92;93.47
71805;BME280;59654;52.216;5.616;2023-01-08T02:10:19;100037.53;;;7.97;93.98
71805;BME280;59654;52.216;5.616;2023-01-08T02:12:31;100042.84;;;7.97;93.01
71805;BME280;59654;52.216;5.616;2023-01-08T02:12:56;100039.19;;;7.99;93.71
71805;BME280;59654;52.216;5.616;2023-01-08T02:13:37;100050.69;;;8.00;93.57
71805;BME280;59654;52.216;5.616;2023-01-08T02:14:31;100044.44;;;8.01;93.94
71805;BME280;59654;52.216;5.616;2023-01-08T02:15:15;100040.81;;;8.03;93.40
71805;BME280;59654;52.216;5.616;2023-01-08T02:17:00;100036.53;;;7.99;93.34
71805;BME280;59654;52.216;5.616;2023-01-08T02:18:33;100029.56;;;7.97;93.70
71805;BME280;59654;52.216;5.616;2023-01-08T02:21:25;100023.84;;;7.85;93.09
71805;BME280;59654;52.216;5.616;2023-01-08T02:24:09;100027.22;;;7.89;94.67
71805;BME280;59654;52.216;5.616;2023-01-08T02:25:08;100025.56;;;7.86;94.10
71805;BME280;59654;52.216;5.616;2023-01-08T02:26:44;100028.06;;;7.90;94.52
71805;BME280;59654;52.216;5.616;2023-01-08T02:27:19;100023.78;;;7.87;94.45
71805;BME280;59654;52.216;5.616;2023-01-08T02:27:53;100019.25;;;7.89;94.54
71805;BME280;59654;52.216;5.616;2023-01-08T02:28:29;100022.81;;;7.88;94.11
71805;BME280;59654;52.216;5.616;2023-01-08T02:29:09;100016.06;;;7.81;93.79
71805;BME280;59654;52.216;5.616;2023-01-08T02:29:46;100020.44;;;7.82;93.50
71805;BME280;59654;52.216;5.616;2023-01-08T02:30:17;100020.38;;;7.83;94.09
71805;BME280;59654;52.216;5.616;2023-01-08T02:30:48;100030.06;;;7.84;93.55
71805;BME280;59654;52.216;5.616;2023-01-08T02:31:22;100023.84;;;7.85;94.42
71805;BME280;59654;52.216;5.616;2023-01-08T02:31:55;100016.75;;;7.86;93.54
71805;BME280;59654;52.216;5.616;2023-01-08T02:32:31;100020.31;;;7.85;94.37
71805;BME280;59654;52.216;5.616;2023-01-08T02:33:04;100018.53;;;7.85;93.92
71805;BME280;59654;52.216;5.616;2023-01-08T02:33:35;100016.00;;;7.82;93.63
71805;BME280;59654;52.216;5.616;2023-01-08T02:34:06;100015.13;;;7.82;93.77
71805;BME280;59654;52.216;5.616;2023-01-08T02:34:38;100016.06;;;7.81;94.51
71805;BME280;59654;52.216;5.616;2023-01-08T02:35:10;100016.00;;;7.82;94.70
71805;BME280;59654;52.216;5.616;2023-01-08T02:35:49;100018.66;;;7.82;93.56
71805;BME280;59654;52.216;5.616;2023-01-08T02:37:09;100014.38;;;7.78;92.99
71805;BME280;59654;52.216;5.616;2023-01-08T02:37:41;100010.06;;;7.76;93.66
71805;BME280;59654;52.216;5.616;2023-01-08T02:38:15;100018.06;;;7.74;94.44
71805;BME280;59654;52.216;5.616;2023-01-08T02:39:31;100016.34;;;7.73;94.07
71805;BME280;59654;52.216;5.616;2023-01-08T02:40:31;100001.34;;;7.72;93.77
71805;BME280;59654;52.216;5.616;2023-01-08T02:41:08;99999.81;;;7.67;93.51
71805;BME280;59654;52.216;5.616;2023-01-08T02:43:36;99999.94;;;7.64;94.44
71805;BME280;59654;52.216;5.616;2023-01-08T02:45:06;100001.66;;;7.65;94.75
71805;BME280;59654;52.216;5.616;2023-01-08T02:45:46;99998.97;;;7.66;94.29
71805;BME280;59654;52.216;5.616;2023-01-08T02:46:27;100000.63;;;7.69;94.32
71805;BME280;59654;52.216;5.616;2023-01-08T02:47:05;99993.53;;;7.69;94.28
71805;BME280;59654;52.216;5.616;2023-01-08T02:47:58;99999.75;;;7.68;94.67
71805;BME280;59654;52.216;5.616;2023-01-08T02:48:39;100005.00;;;7.70;94.67
71805;BME280;59654;52.216;5.616;2023-01-08T02:49:14;100008.44;;;7.72;94.16
71805;BME280;59654;52.216;5.616;2023-01-08T02:49:56;100001.50;;;7.69;94.67
71805;BME280;59654;52.216;5.616;2023-01-08T02:51:43;99998.03;;;7.67;93.73
71805;BME280;59654;52.216;5.616;2023-01-08T02:52:18;99997.16;;;7.67;94.21
71805;BME280;59654;52.216;5.616;2023-01-08T02:53:50;99989.22;;;7.67;94.46
71805;BME280;59654;52.216;5.616;2023-01-08T02:54:30;99990.13;;;7.66;93.81
71805;BME280;59654;52.216;5.616;2023-01-08T02:55:04;99990.13;;;7.66;94.44
71805;BME280;59654;52.216;5.616;2023-01-08T02:55:38;99982.97;;;7.68;94.25
71805;BME280;59654;52.216;5.616;2023-01-08T02:56:16;99978.59;;;7.67;93.67
71805;BME280;59654;52.216;5.616;2023-01-08T02:56:58;99982.13;;;7.67;93.96
71805;BME280;59654;52.216;5.616;2023-01-08T02:57:41;99980.56;;;7.62;93.68
71805;BME280;59654;52.216;5.616;2023-01-08T02:58:13;99972.53;;;7.63;93.75
71805;BME280;59654;52.216;5.616;2023-01-08T02:58:45;99974.34;;;7.63;93.57
71805;BME280;59654;52.216;5.616;2023-01-08T02:59:20;99980.50;;;7.63;93.68
71805;BME280;59654;52.216;5.616;2023-01-08T02:59:55;99984.13;;;7.61;93.17
71805;BME280;59654;52.216;5.616;2023-01-08T03:00:28;99977.09;;;7.60;93.66
71805;BME280;59654;52.216;5.616;2023-01-08T03:01:03;99980.50;;;7.63;94.17
71805;BME280;59654;52.216;5.616;2023-01-08T03:01:37;99979.63;;;7.63;94.20
71805;BME280;59654;52.216;5.616;2023-01-08T03:02:11;99973.41;;;7.64;93.36
71805;BME280;59654;52.216;5.616;2023-01-08T03:02:42;99976.00;;;7.65;93.17
71805;BME280;59654;52.216;5.616;2023-01-08T03:03:21;99976.88;;;7.66;93.74
71805;BME280;59654;52.216;5.616;2023-01-08T03:04:05;99979.53;;;7.66;93.49
71805;BME280;59654;52.216;5.616;2023-01-08T03:04:49;99983.97;;;7.65;93.08
71805;BME280;59654;52.216;5.616;2023-01-08T03:05:25;99988.28;;;7.68;93.16
71805;BME280;59654;52.216;5.616;2023-01-08T03:06:02;99987.44;;;7.67;93.14
71805;BME280;59654;52.216;5.616;2023-01-08T03:06:37;99989.22;;;7.67;93.00
71805;BME280;59654;52.216;5.616;2023-01-08T03:07:08;99991.06;;;7.65;93.61
71805;BME280;59654;52.216;5.616;2023-01-08T03:07:39;99989.31;;;7.64;93.72
71805;BME280;59654;52.216;5.616;2023-01-08T03:08:11;99984.88;;;7.64;93.74
71805;BME280;59654;52.216;5.616;2023-01-08T03:08:46;99994.63;;;7.64;93.15
71805;BME280;59654;52.216;5.616;2023-01-08T03:09:18;99994.63;;;7.64;93.04
71805;BME280;59654;52.216;5.616;2023-01-08T03:09:50;99994.69;;;7.62;93.39
71805;BME280;59654;52.216;5.616;2023-01-08T03:10:26;99992.84;;;7.64;93.98
71805;BME280;59654;52.216;5.616;2023-01-08T03:11:07;99998.09;;;7.66;93.58
71805;BME280;59654;52.216;5.616;2023-01-08T03:12:26;99996.31;;;7.66;93.45
71805;BME280;59654;52.216;5.616;2023-01-08T03:13:26;99991.06;;;7.65;93.33
71805;BME280;59654;52.216;5.616;2023-01-08T03:14:22;99985.88;;;7.62;93.62
71805;BME280;59654;52.216;5.616;2023-01-08T03:15:07;99990.25;;;7.63;93.91
71805;BME280;59654;52.216;5.616;2023-01-08T03:15:54;99995.56;;;7.63;93.79
71805;BME280;59654;52.216;5.616;2023-01-08T03:16:47;99988.59;;;7.60;93.52
71805;BME280;59654;52.216;5.616;2023-01-08T03:17:47;99985.00;;;7.61;94.57
71805;BME280;59654;52.216;5.616;2023-01-08T03:18:31;99991.22;;;7.60;94.59
71805;BME280;59654;52.216;5.616;2023-01-08T03:19:12;99984.13;;;7.61;94.09
71805;BME280;59654;52.216;5.616;2023-01-08T03:19:56;99989.38;;;7.62;94.21
71805;BME280;59654;52.216;5.616;2023-01-08T03:20:34;99994.63;;;7.64;94.08